Time;durP1;ratioP1;P1;durP2;ratioP2;P2;SDS_P1;SDS_P2;PMS_P1;PMS_P2;Temp;Humidity;BMP_temperature;BMP_pressure;BME280_temperature;BME280_humidity;BME280_pressure;Samples;Min_cycle;Max_cycle;Signal;HPM_P1;HPM_P2
2023/09/18 00:00:14;;;;;;;30.25;22.13;;;16.90;99.90;;;;;;5009912;28;20066;-69
2023/09/18 00:02:40;;;;;;;33.88;23.70;;;16.90;99.90;;;;;;5010259;28;20439;-69
2023/09/18 00:05:05;;;;;;;32.53;24.83;;;16.90;99.90;;;;;;5010508;28;20105;-70
2023/09/18 00:07:31;;;;;;;34.20;23.95;;;17.00;99.90;;;;;;5010830;28;20041;-69
2023/09/18 00:09:57;;;;;;;34.13;23.17;;;17.10;99.90;;;;;;5009999;28;20033;-68
2023/09/18 00:12:22;;;;;;;35.20;24.23;;;17.10;99.90;;;;;;5010539;28;20475;-70
2023/09/18 00:14:49;;;;;;;32.85;24.23;;;17.10;99.90;;;;;;5008298;28;20118;-69
2023/09/18 00:17:16;;;;;;;32.25;22.23;;;17.10;99.90;;;;;;5009343;28;20077;-68
2023/09/18 00:19:42;;;;;;;27.05;20.80;;;16.90;99.90;;;;;;5010163;28;20038;-69
2023/09/18 00:22:08;;;;;;;31.77;22.30;;;16.90;99.90;;;;;;5010509;28;20087;-69
2023/09/18 00:24:33;;;;;;;27.48;21.27;;;16.80;99.90;;;;;;5019216;28;20038;-70
2023/09/18 00:26:59;;;;;;;29.85;21.35;;;16.70;99.90;;;;;;4994675;28;20480;-68
2023/09/18 00:29:25;;;;;;;28.00;20.90;;;16.70;99.90;;;;;;5010477;28;20041;-68
2023/09/18 00:31:50;;;;;;;25.52;19.40;;;16.60;99.90;;;;;;5002514;28;20092;-67
2023/09/18 00:34:16;;;;;;;30.23;22.02;;;16.60;99.90;;;;;;5025532;28;20133;-68
2023/09/18 00:36:41;;;;;;;25.27;20.45;;;16.60;99.90;;;;;;5009409;28;20041;-69
2023/09/18 00:39:08;;;;;;;30.90;22.75;;;16.70;99.90;;;;;;5010173;28;20045;-68
2023/09/18 00:41:33;;;;;;;36.65;24.02;;;16.60;99.90;;;;;;5008577;28;20069;-68
2023/09/18 00:43:59;;;;;;;39.63;26.35;;;16.60;99.90;;;;;;5011601;28;20099;-67
2023/09/18 00:46:25;;;;;;;40.65;28.05;;;16.80;99.90;;;;;;5013034;28;20049;-68
2023/09/18 00:48:51;;;;;;;41.75;29.48;;;17.00;99.90;;;;;;5015246;28;20061;-67
2023/09/18 00:51:17;;;;;;;44.20;31.55;;;17.10;99.90;;;;;;5004162;28;20476;-68
2023/09/18 00:53:50;;;;;;;50.25;32.47;;;17.20;99.90;;;;;;5015469;28;20492;-68
2023/09/18 00:56:16;;;;;;;48.38;32.70;;;17.30;99.90;;;;;;5028602;28;20053;-67
2023/09/18 00:58:43;;;;;;;43.80;31.67;;;17.30;99.90;;;;;;5023265;28;20108;-67
2023/09/18 01:01:10;;;;;;;45.17;31.83;;;17.40;99.90;;;;;;5015168;28;20073;-68
2023/09/18 01:03:36;;;;;;;47.13;32.90;;;17.40;99.90;;;;;;5013460;28;20046;-68
2023/09/18 01:06:03;;;;;;;48.55;32.55;;;17.50;99.90;;;;;;5012502;28;20104;-68
2023/09/18 01:08:30;;;;;;;45.03;32.05;;;17.50;99.90;;;;;;5013022;28;20034;-68
2023/09/18 01:11:14;;;;;;;43.35;30.85;;;17.50;99.90;;;;;;5020906;28;20543;-68
2023/09/18 01:13:51;;;;;;;45.42;30.05;;;17.50;99.90;;;;;;5018339;28;20076;-67
2023/09/18 01:16:32;;;;;;;40.78;30.80;;;17.50;99.90;;;;;;5030115;28;20040;-68
2023/09/18 01:18:57;;;;;;;42.55;30.23;;;17.50;99.90;;;;;;5017758;28;20046;-69
2023/09/18 01:21:23;;;;;;;44.13;29.58;;;17.50;99.90;;;;;;5014288;28;20044;-68
2023/09/18 01:23:49;;;;;;;46.15;30.40;;;17.50;99.90;;;;;;5022697;28;20041;-67
2023/09/18 01:26:14;;;;;;;41.72;29.70;;;17.50;99.90;;;;;;5007352;28;20042;-68
2023/09/18 01:28:40;;;;;;;39.85;29.83;;;17.50;99.90;;;;;;5034160;28;20132;-67
2023/09/18 01:31:06;;;;;;;39.72;29.42;;;17.40;99.90;;;;;;5020430;28;20037;-68
2023/09/18 01:33:33;;;;;;;38.42;27.73;;;17.40;99.90;;;;;;5023529;28;20109;-68
2023/09/18 01:36:00;;;;;;;42.65;28.85;;;17.40;99.90;;;;;;5029363;28;20037;-68
2023/09/18 01:38:27;;;;;;;40.75;28.67;;;17.40;99.90;;;;;;5030759;28;20156;-67
2023/09/18 01:40:53;;;;;;;39.85;29.05;;;17.40;99.90;;;;;;5023944;28;20045;-68
2023/09/18 01:43:19;;;;;;;39.65;28.88;;;17.50;99.90;;;;;;5005953;28;20042;-67
2023/09/18 01:45:47;;;;;;;40.75;28.20;;;17.50;99.90;;;;;;5014911;28;20685;-69
2023/09/18 01:48:13;;;;;;;41.53;28.17;;;17.50;99.90;;;;;;5009451;28;20063;-68
2023/09/18 01:50:42;;;;;;;38.30;27.70;;;17.60;99.90;;;;;;5021399;28;20053;-68
2023/09/18 01:53:07;;;;;;;37.75;28.02;;;17.60;99.90;;;;;;5030703;28;20033;-69
2023/09/18 01:55:33;;;;;;;39.50;28.17;;;17.60;99.90;;;;;;5032039;28;20107;-67
2023/09/18 01:57:59;;;;;;;41.63;27.73;;;17.50;99.90;;;;;;5022505;28;20044;-67
2023/09/18 02:00:25;;;;;;;36.75;28.05;;;17.60;99.90;;;;;;5029243;28;20041;-68
2023/09/18 02:02:50;;;;;;;38.28;27.10;;;17.50;99.90;;;;;;5011940;28;20492;-68
2023/09/18 02:05:16;;;;;;;37.60;27.25;;;17.60;99.90;;;;;;5016227;28;20049;-69
2023/09/18 02:07:41;;;;;;;37.22;26.92;;;17.60;99.90;;;;;;5026997;28;20029;-68
2023/09/18 02:10:07;;;;;;;38.20;27.13;;;17.60;99.90;;;;;;5013128;28;20049;-68
2023/09/18 02:12:33;;;;;;;38.08;26.98;;;17.60;99.90;;;;;;5011062;28;20656;-68
2023/09/18 02:15:01;;;;;;;36.60;27.30;;;17.60;99.90;;;;;;5019094;28;20033;-68
2023/09/18 02:17:26;;;;;;;34.90;26.30;;;17.60;99.90;;;;;;5020582;28;20034;-68
2023/09/18 02:19:52;;;;;;;37.13;25.67;;;17.60;99.90;;;;;;5028570;28;20084;-67
2023/09/18 02:22:17;;;;;;;37.20;25.17;;;17.60;99.90;;;;;;5014684;28;20560;-69
2023/09/18 02:24:43;;;;;;;33.42;26.45;;;17.70;99.90;;;;;;5024115;28;20488;-69
2023/09/18 02:27:08;;;;;;;34.92;25.05;;;17.60;99.90;;;;;;5028803;28;20060;-69
2023/09/18 02:29:34;;;;;;;33.72;25.08;;;17.60;99.90;;;;;;5028503;28;20029;-69
2023/09/18 02:31:59;;;;;;;34.83;25.90;;;17.60;99.90;;;;;;5032198;28;20052;-69
2023/09/18 02:34:25;;;;;;;39.22;26.48;;;17.60;99.90;;;;;;5012666;28;20557;-69
2023/09/18 02:36:50;;;;;;;36.80;24.58;;;17.70;99.90;;;;;;5013178;28;20496;-68
2023/09/18 02:39:16;;;;;;;35.25;24.95;;;17.70;99.90;;;;;;5022850;28;20567;-67
2023/09/18 02:41:41;;;;;;;38.90;25.38;;;17.70;99.90;;;;;;5023817;28;20034;-68
2023/09/18 02:44:07;;;;;;;29.92;23.33;;;17.70;99.90;;;;;;5032038;28;20091;-68
2023/09/18 02:46:33;;;;;;;32.10;24.15;;;17.70;99.90;;;;;;5024353;28;20042;-70
2023/09/18 02:48:58;;;;;;;33.17;23.48;;;17.80;99.90;;;;;;5013572;28;20168;-68
2023/09/18 02:51:24;;;;;;;30.63;22.63;;;17.80;99.90;;;;;;5012501;28;20037;-68
2023/09/18 02:53:49;;;;;;;29.25;22.35;;;17.80;99.90;;;;;;5018297;28;20029;-68
2023/09/18 02:56:15;;;;;;;27.80;21.52;;;17.90;99.90;;;;;;5020832;28;20538;-69
2023/09/18 02:58:40;;;;;;;28.52;20.77;;;17.90;99.90;;;;;;5025680;28;20054;-67
2023/09/18 03:01:08;;;;;;;28.67;22.00;;;17.90;99.90;;;;;;5031955;28;20052;-67
2023/09/18 03:03:33;;;;;;;29.08;20.73;;;18.00;99.90;;;;;;5017148;28;20077;-69
2023/09/18 03:06:04;;;;;;;29.52;21.58;;;18.00;99.90;;;;;;5019340;28;20119;-68
2023/09/18 03:08:30;;;;;;;29.42;20.48;;;18.10;99.90;;;;;;5012156;28;20045;-68
2023/09/18 03:10:56;;;;;;;26.73;20.60;;;18.10;99.90;;;;;;5011661;28;20469;-67
2023/09/18 03:13:22;;;;;;;29.27;21.00;;;18.10;99.90;;;;;;5022874;28;20092;-67
2023/09/18 03:15:48;;;;;;;25.65;20.60;;;18.20;99.90;;;;;;5031406;28;20361;-68
2023/09/18 03:18:14;;;;;;;32.70;21.25;;;18.20;99.90;;;;;;5023704;28;20080;-68
2023/09/18 03:20:39;;;;;;;29.58;19.83;;;18.30;99.90;;;;;;5019891;28;20049;-68
2023/09/18 03:23:05;;;;;;;28.15;20.02;;;18.20;99.90;;;;;;5020468;28;20044;-68
2023/09/18 03:25:30;;;;;;;28.83;20.10;;;18.20;99.90;;;;;;5011411;28;20443;-68
2023/09/18 03:27:57;;;;;;;29.00;19.40;;;18.20;99.90;;;;;;4991086;28;20034;-68
2023/09/18 03:30:23;;;;;;;25.92;19.27;;;18.20;99.90;;;;;;5021656;28;20029;-67
2023/09/18 03:32:49;;;;;;;28.00;19.38;;;18.20;99.90;;;;;;5031076;28;20253;-69
2023/09/18 03:35:18;;;;;;;28.00;19.75;;;18.20;99.90;;;;;;5018773;28;20076;-69
2023/09/18 03:37:56;;;;;;;27.05;19.25;;;18.30;99.90;;;;;;5000911;28;20029;-68
2023/09/18 03:40:22;;;;;;;25.52;18.83;;;18.20;99.90;;;;;;5022652;28;20845;-69
2023/09/18 03:42:48;;;;;;;27.80;18.42;;;18.30;99.90;;;;;;5027669;28;20037;-70
2023/09/18 03:45:14;;;;;;;28.83;19.10;;;18.20;99.90;;;;;;5010217;28;20071;-69
2023/09/18 03:47:41;;;;;;;25.00;18.75;;;18.20;99.90;;;;;;5021542;28;20633;-70
2023/09/18 03:50:11;;;;;;;26.45;19.00;;;18.20;99.90;;;;;;5031238;28;20072;-70
2023/09/18 03:52:38;;;;;;;27.92;19.05;;;18.30;99.90;;;;;;5027821;28;20037;-69
2023/09/18 03:55:04;;;;;;;25.50;18.73;;;18.30;99.90;;;;;;5019271;28;20037;-69
2023/09/18 03:57:30;;;;;;;27.15;18.90;;;18.20;99.90;;;;;;5022562;28;20040;-69
2023/09/18 03:59:55;;;;;;;25.42;18.20;;;18.20;99.90;;;;;;5031372;28;20038;-69
2023/09/18 04:02:24;;;;;;;25.73;18.67;;;18.20;99.90;;;;;;5016079;28;20037;-69
2023/09/18 04:04:49;;;;;;;24.55;18.10;;;18.20;99.90;;;;;;5014065;28;20045;-70
2023/09/18 04:07:16;;;;;;;25.05;17.65;;;18.10;99.90;;;;;;5020944;28;20036;-68
2023/09/18 04:09:42;;;;;;;25.95;17.92;;;18.10;99.90;;;;;;5006080;28;20120;-69
2023/09/18 04:12:08;;;;;;;23.23;17.42;;;18.10;99.90;;;;;;5031093;28;20465;-69
2023/09/18 04:14:34;;;;;;;24.35;17.52;;;18.10;99.90;;;;;;5023014;28;20034;-69
2023/09/18 04:17:02;;;;;;;26.02;18.08;;;18.10;99.90;;;;;;5021415;28;20496;-69
2023/09/18 04:19:28;;;;;;;25.25;17.38;;;18.10;99.90;;;;;;5028712;28;20105;-69
2023/09/18 04:21:55;;;;;;;28.02;18.40;;;18.10;99.90;;;;;;5026843;28;20555;-69
2023/09/18 04:24:21;;;;;;;23.77;17.60;;;18.10;99.90;;;;;;5034263;28;20724;-68
2023/09/18 04:26:47;;;;;;;28.27;18.27;;;18.10;99.90;;;;;;5034334;28;20041;-69
2023/09/18 04:29:13;;;;;;;25.05;17.88;;;18.10;99.90;;;;;;5030388;28;20036;-69
2023/09/18 04:31:38;;;;;;;25.35;17.95;;;18.20;99.90;;;;;;5027234;28;20497;-69
2023/09/18 04:34:04;;;;;;;25.40;18.13;;;18.20;99.90;;;;;;4997633;28;20404;-68
2023/09/18 04:36:31;;;;;;;30.30;18.35;;;18.20;99.90;;;;;;5025012;28;20045;-68
2023/09/18 04:38:57;;;;;;;26.70;17.88;;;18.20;99.90;;;;;;5025902;28;20045;-68
2023/09/18 04:41:22;;;;;;;24.98;16.80;;;18.20;99.90;;;;;;5034518;28;20038;-68
2023/09/18 04:43:48;;;;;;;25.13;17.20;;;18.30;99.90;;;;;;5021220;28;20033;-69
2023/09/18 04:46:14;;;;;;;25.55;17.52;;;18.30;99.90;;;;;;5023513;28;20042;-69
2023/09/18 04:48:39;;;;;;;24.52;17.42;;;18.30;99.90;;;;;;5034507;28;20041;-69
2023/09/18 04:51:05;;;;;;;24.40;16.92;;;18.30;99.90;;;;;;5027839;28;20542;-68
2023/09/18 04:53:32;;;;;;;28.63;17.42;;;18.40;99.90;;;;;;5026872;28;20522;-68
2023/09/18 04:55:57;;;;;;;26.92;17.20;;;18.30;99.90;;;;;;5015018;28;20038;-70
2023/09/18 04:58:23;;;;;;;23.10;16.75;;;18.30;99.90;;;;;;5021708;28;20111;-68
2023/09/18 05:00:56;;;;;;;24.60;16.00;;;18.30;99.90;;;;;;5032708;28;20037;-68
2023/09/18 05:03:21;;;;;;;24.60;16.52;;;18.30;99.90;;;;;;5033866;28;20476;-67
2023/09/18 05:05:47;;;;;;;26.40;17.83;;;18.30;99.90;;;;;;5014945;28;20041;-69
2023/09/18 05:08:13;;;;;;;27.92;16.00;;;18.30;99.90;;;;;;5013880;28;20038;-68
2023/09/18 05:10:38;;;;;;;24.27;16.30;;;18.30;99.90;;;;;;5005374;28;20128;-68
2023/09/18 05:13:04;;;;;;;24.88;16.92;;;18.20;99.90;;;;;;5029272;28;20048;-67
2023/09/18 05:15:30;;;;;;;28.15;17.60;;;18.20;99.90;;;;;;5030935;28;20041;-67
2023/09/18 05:17:57;;;;;;;25.52;16.88;;;18.30;99.90;;;;;;5007158;28;20119;-67
2023/09/18 05:20:25;;;;;;;28.88;17.23;;;18.30;99.90;;;;;;5024362;28;20155;-67
2023/09/18 05:22:54;;;;;;;26.10;16.27;;;18.20;99.90;;;;;;5032315;28;20099;-68
2023/09/18 05:25:54;;;;;;;25.10;16.83;;;18.20;99.90;;;;;;5022677;28;20041;-68
2023/09/18 05:28:13;;;;;;;24.58;17.23;;;18.20;99.90;;;;;;5023551;28;20124;-68
2023/09/18 05:30:38;;;;;;;27.13;17.20;;;18.20;99.90;;;;;;5028653;28;20104;-67
2023/09/18 05:33:05;;;;;;;24.55;16.27;;;18.20;99.90;;;;;;5026053;28;20034;-67
2023/09/18 05:35:42;;;;;;;26.83;17.00;;;18.20;99.90;;;;;;5019642;28;20090;-68
2023/09/18 05:38:09;;;;;;;25.23;16.75;;;18.20;99.90;;;;;;5027265;28;20033;-68
2023/09/18 05:40:35;;;;;;;29.30;16.10;;;18.30;99.90;;;;;;5012640;28;20033;-68
2023/09/18 05:43:04;;;;;;;23.88;15.00;;;18.30;99.90;;;;;;5021312;28;20045;-69
2023/09/18 05:45:31;;;;;;;24.15;14.88;;;18.30;99.90;;;;;;5022331;28;20037;-68
2023/09/18 05:48:06;;;;;;;21.67;14.10;;;18.30;99.90;;;;;;5009738;28;20574;-68
2023/09/18 05:50:35;;;;;;;26.27;14.63;;;18.30;99.90;;;;;;5018777;28;20117;-68
2023/09/18 05:53:03;;;;;;;26.85;15.52;;;18.40;99.90;;;;;;5019283;28;20033;-70
2023/09/18 05:55:35;;;;;;;21.88;15.10;;;18.50;99.90;;;;;;5029033;28;20037;-67
2023/09/18 05:58:04;;;;;;;24.08;14.90;;;18.40;99.90;;;;;;5020945;28;20041;-70
2023/09/18 06:00:30;;;;;;;26.80;14.55;;;18.50;99.90;;;;;;5026617;28;20033;-67
2023/09/18 06:02:56;;;;;;;21.05;14.52;;;18.50;99.90;;;;;;5032837;28;20125;-68
2023/09/18 06:05:22;;;;;;;24.27;13.45;;;18.60;99.90;;;;;;5030265;28;20187;-66
2023/09/18 06:07:48;;;;;;;21.00;12.02;;;18.70;99.90;;;;;;5018653;28;20033;-69
2023/09/18 06:10:14;;;;;;;18.38;11.55;;;18.80;99.90;;;;;;5012643;28;20033;-67
2023/09/18 06:12:40;;;;;;;19.73;11.27;;;18.80;99.90;;;;;;5032703;28;20029;-69
2023/09/18 06:15:12;;;;;;;18.23;11.45;;;18.80;99.90;;;;;;5021955;28;20544;-66
2023/09/18 06:17:43;;;;;;;16.73;10.88;;;18.90;99.90;;;;;;5011315;28;20092;-68
2023/09/18 06:20:09;;;;;;;15.25;10.85;;;19.00;99.90;;;;;;5016212;28;20443;-67
2023/09/18 06:22:39;;;;;;;16.23;10.35;;;19.20;99.90;;;;;;5027411;28;20030;-67
2023/09/18 06:25:09;;;;;;;19.95;10.90;;;19.20;99.90;;;;;;5010735;28;20034;-67
2023/09/18 06:27:36;;;;;;;15.52;10.15;;;19.20;99.90;;;;;;5024335;28;20491;-66
2023/09/18 06:30:03;;;;;;;15.25;10.50;;;19.20;99.90;;;;;;5023774;28;20090;-66
2023/09/18 06:32:29;;;;;;;20.42;10.88;;;19.20;99.90;;;;;;5020801;28;20045;-67
2023/09/18 06:34:54;;;;;;;18.58;10.00;;;19.30;99.90;;;;;;5030253;28;20030;-68
2023/09/18 06:37:20;;;;;;;15.77;10.18;;;19.30;99.90;;;;;;5012692;28;20042;-68
2023/09/18 06:39:46;;;;;;;18.67;10.88;;;19.40;99.90;;;;;;5010628;28;20034;-68
2023/09/18 06:42:11;;;;;;;18.48;11.98;;;19.50;99.90;;;;;;5018030;28;20029;-68
2023/09/18 06:44:38;;;;;;;16.17;10.95;;;19.50;99.90;;;;;;5032015;28;20072;-67
2023/09/18 06:47:03;;;;;;;22.65;12.45;;;19.50;99.90;;;;;;5019645;28;20377;-68
2023/09/18 06:49:30;;;;;;;23.23;12.63;;;19.30;99.90;;;;;;5020206;28;20051;-68
2023/09/18 06:51:56;;;;;;;24.08;13.73;;;19.20;99.90;;;;;;5001362;28;20115;-67
2023/09/18 06:54:21;;;;;;;20.95;13.82;;;19.10;99.90;;;;;;5022820;28;20076;-68
2023/09/18 06:56:47;;;;;;;23.50;14.80;;;19.10;99.90;;;;;;5031680;28;20060;-68
2023/09/18 06:59:13;;;;;;;23.13;14.73;;;19.10;99.90;;;;;;5019661;28;20045;-68
2023/09/18 07:01:40;;;;;;;26.05;15.52;;;19.10;99.90;;;;;;5025372;28;20088;-68
2023/09/18 07:04:05;;;;;;;25.23;16.10;;;19.00;99.90;;;;;;5029439;28;20068;-65
2023/09/18 07:06:31;;;;;;;24.38;15.50;;;19.10;99.90;;;;;;5026107;28;20596;-66
2023/09/18 07:08:56;;;;;;;26.25;16.15;;;19.00;99.90;;;;;;5020096;28;20042;-67
2023/09/18 07:11:22;;;;;;;26.35;16.73;;;19.00;99.90;;;;;;5031052;28;20430;-67
2023/09/18 07:13:47;;;;;;;26.10;16.35;;;19.00;99.90;;;;;;5024739;28;20160;-68
2023/09/18 07:16:13;;;;;;;22.67;16.35;;;19.00;99.90;;;;;;5016685;28;20045;-68
2023/09/18 07:18:39;;;;;;;24.00;16.52;;;19.10;99.90;;;;;;5022774;28;20043;-68
2023/09/18 07:21:04;;;;;;;27.63;16.80;;;19.20;99.90;;;;;;5027468;28;20107;-68
2023/09/18 07:23:30;;;;;;;23.50;16.55;;;19.20;99.90;;;;;;5011479;28;20076;-67
2023/09/18 07:25:57;;;;;;;25.48;16.45;;;19.30;99.90;;;;;;5012388;28;20038;-68
2023/09/18 07:28:24;;;;;;;24.08;16.92;;;19.30;99.90;;;;;;5020397;28;20069;-68
2023/09/18 07:30:50;;;;;;;28.67;17.30;;;19.40;99.90;;;;;;5024259;28;20078;-66
2023/09/18 07:33:17;;;;;;;27.17;17.77;;;19.40;99.90;;;;;;5008389;28;20069;-68
2023/09/18 07:35:47;;;;;;;24.15;17.17;;;19.50;99.90;;;;;;5007753;28;20073;-67
2023/09/18 07:38:12;;;;;;;28.10;17.58;;;19.40;99.90;;;;;;5010589;28;20542;-67
2023/09/18 07:40:38;;;;;;;27.27;17.58;;;19.50;99.90;;;;;;5015463;28;20033;-68
2023/09/18 07:43:03;;;;;;;25.50;16.92;;;19.50;99.90;;;;;;5026291;28;24761;-67
2023/09/18 07:45:29;;;;;;;25.08;16.35;;;19.50;99.90;;;;;;5029168;28;20092;-67
2023/09/18 07:47:54;;;;;;;25.02;15.80;;;19.50;99.90;;;;;;5014553;28;20164;-67
2023/09/18 07:50:20;;;;;;;25.20;16.08;;;19.50;99.90;;;;;;5021081;28;20077;-67
2023/09/18 07:52:46;;;;;;;23.40;15.63;;;19.50;99.90;;;;;;5025290;28;20040;-67
2023/09/18 07:55:11;;;;;;;24.35;16.60;;;19.60;99.90;;;;;;5017699;28;20446;-67
2023/09/18 07:57:38;;;;;;;23.17;15.10;;;19.60;99.90;;;;;;5020755;28;20058;-67
2023/09/18 08:00:07;;;;;;;21.17;15.07;;;19.60;99.90;;;;;;4996637;28;20048;-68
2023/09/18 08:02:34;;;;;;;19.75;14.75;;;19.70;99.90;;;;;;5030736;28;20029;-67
2023/09/18 08:05:01;;;;;;;23.17;14.88;;;19.70;99.90;;;;;;5006165;28;20080;-66
2023/09/18 08:07:28;;;;;;;22.70;14.57;;;19.70;99.90;;;;;;5013878;28;20573;-66
2023/09/18 08:09:53;;;;;;;22.63;14.25;;;19.70;99.90;;;;;;4996505;28;20064;-67
2023/09/18 08:12:19;;;;;;;26.58;15.00;;;19.70;99.90;;;;;;5012101;28;20125;-68
2023/09/18 08:14:44;;;;;;;21.92;15.52;;;19.70;99.90;;;;;;5013877;28;20034;-68
2023/09/18 08:17:10;;;;;;;25.40;15.63;;;19.80;99.90;;;;;;5013507;28;20397;-68
2023/09/18 08:19:36;;;;;;;23.30;16.02;;;19.80;99.90;;;;;;5014515;28;20049;-66
2023/09/18 08:22:03;;;;;;;24.15;16.00;;;19.80;99.90;;;;;;5015814;28;20030;-68
2023/09/18 08:24:29;;;;;;;29.00;17.15;;;19.90;99.90;;;;;;5019634;28;20038;-67
2023/09/18 08:26:55;;;;;;;26.30;17.15;;;19.90;99.90;;;;;;5018839;28;20407;-67
2023/09/18 08:29:22;;;;;;;27.60;17.40;;;19.90;99.90;;;;;;5011740;28;20068;-67
2023/09/18 08:31:49;;;;;;;29.15;17.70;;;20.00;99.90;;;;;;5025294;28;20076;-67
2023/09/18 08:34:14;;;;;;;28.60;17.08;;;20.00;99.90;;;;;;5013662;28;20042;-66
2023/09/18 08:36:40;;;;;;;26.63;17.20;;;20.10;99.90;;;;;;5014162;28;20095;-68
2023/09/18 08:39:06;;;;;;;27.25;16.70;;;20.10;99.90;;;;;;5013529;28;20042;-68
2023/09/18 08:41:33;;;;;;;25.40;15.07;;;20.20;99.90;;;;;;5013762;28;20037;-69
2023/09/18 08:44:03;;;;;;;24.77;15.63;;;20.30;99.90;;;;;;5013715;28;20049;-68
2023/09/18 08:46:30;;;;;;;23.13;16.02;;;20.30;99.90;;;;;;5015170;28;20119;-68
2023/09/18 08:48:57;;;;;;;22.42;15.75;;;20.40;99.90;;;;;;5013130;28;20037;-68
2023/09/18 08:51:23;;;;;;;24.83;16.00;;;20.30;99.90;;;;;;5013021;28;20481;-67
2023/09/18 08:53:49;;;;;;;23.98;16.05;;;20.40;99.90;;;;;;5013929;28;20044;-67
2023/09/18 08:56:16;;;;;;;23.65;15.50;;;20.50;99.90;;;;;;5013911;28;20044;-67
2023/09/18 08:58:43;;;;;;;22.42;16.25;;;20.50;99.90;;;;;;5016132;28;20049;-68
2023/09/18 09:01:09;;;;;;;22.20;15.07;;;20.60;99.90;;;;;;5012056;28;20053;-67
2023/09/18 09:03:42;;;;;;;22.65;15.57;;;20.60;99.90;;;;;;5017257;28;20510;-68
2023/09/18 09:06:09;;;;;;;21.02;14.23;;;20.70;99.90;;;;;;5014799;28;20038;-68
2023/09/18 09:08:36;;;;;;;20.17;15.00;;;20.60;99.90;;;;;;5014252;28;20029;-66
2023/09/18 09:11:02;;;;;;;18.20;13.63;;;20.60;99.90;;;;;;5019076;28;20038;-70
2023/09/18 09:13:27;;;;;;;21.20;13.38;;;20.60;99.90;;;;;;5020135;28;20064;-66
2023/09/18 09:15:58;;;;;;;19.98;13.77;;;20.50;99.90;;;;;;5012598;28;20069;-68
2023/09/18 09:18:25;;;;;;;20.92;13.63;;;20.60;99.90;;;;;;5013562;28;20107;-68
2023/09/18 09:20:58;;;;;;;21.00;13.93;;;20.70;99.90;;;;;;5015728;28;20080;-68
2023/09/18 09:23:25;;;;;;;18.60;12.75;;;20.80;99.90;;;;;;5012900;28;20048;-67
2023/09/18 09:25:51;;;;;;;18.25;12.70;;;20.80;99.90;;;;;;5012927;28;20038;-67
2023/09/18 09:28:30;;;;;;;16.33;12.15;;;20.80;99.90;;;;;;5013997;28;20041;-68
2023/09/18 09:31:03;;;;;;;15.48;11.63;;;20.80;99.90;;;;;;5021771;28;20037;-68
2023/09/18 09:33:29;;;;;;;18.83;10.93;;;20.90;99.90;;;;;;5012859;28;20042;-66
2023/09/18 09:35:56;;;;;;;15.50;11.65;;;21.00;99.90;;;;;;5018133;28;20725;-66
2023/09/18 09:38:32;;;;;;;16.20;11.07;;;21.10;99.90;;;;;;5022309;28;20037;-67
2023/09/18 09:41:01;;;;;;;17.20;10.82;;;21.10;99.90;;;;;;5028370;28;20571;-67
2023/09/18 09:43:30;;;;;;;13.57;10.27;;;21.20;99.90;;;;;;5015523;28;20052;-67
2023/09/18 09:46:00;;;;;;;17.73;9.68;;;21.30;99.90;;;;;;4997363;28;20129;-68
2023/09/18 09:48:26;;;;;;;14.18;9.93;;;21.30;99.90;;;;;;5011282;28;20034;-67
2023/09/18 09:50:56;;;;;;;15.02;9.18;;;21.40;99.90;;;;;;4994400;28;20073;-68
2023/09/18 09:53:43;;;;;;;12.10;9.18;;;21.40;99.90;;;;;;5013680;28;20056;-67
2023/09/18 09:56:09;;;;;;;13.48;9.70;;;21.40;99.90;;;;;;5012608;28;20074;-68
2023/09/18 09:58:34;;;;;;;10.65;9.02;;;21.50;99.90;;;;;;5011241;28;20096;-66
2023/09/18 10:01:08;;;;;;;12.52;8.38;;;21.40;99.90;;;;;;5011061;28;20037;-66
2023/09/18 10:03:36;;;;;;;12.07;8.88;;;21.40;99.90;;;;;;5004479;28;20120;-66
2023/09/18 10:06:04;;;;;;;10.20;7.60;;;21.40;99.90;;;;;;5014727;28;20053;-67
2023/09/18 10:08:31;;;;;;;10.18;7.80;;;21.40;99.90;;;;;;5011273;28;20117;-67
2023/09/18 10:11:10;;;;;;;11.65;8.05;;;21.40;99.90;;;;;;5016573;28;20425;-67
2023/09/18 10:13:56;;;;;;;9.85;7.93;;;21.40;99.90;;;;;;5012138;28;20037;-68
2023/09/18 10:16:27;;;;;;;11.68;7.25;;;21.50;99.90;;;;;;5009246;28;20050;-68
2023/09/18 10:19:18;;;;;;;10.57;7.38;;;21.60;99.90;;;;;;5025139;28;20037;-67
2023/09/18 10:22:20;;;;;;;12.68;7.55;;;21.50;99.90;;;;;;5017527;28;20034;-68
2023/09/18 10:24:47;;;;;;;8.48;7.15;;;21.50;99.90;;;;;;4994881;28;20046;-68
2023/09/18 10:27:14;;;;;;;9.15;6.68;;;21.60;99.90;;;;;;5012791;28;20041;-68
2023/09/18 10:29:41;;;;;;;9.20;6.15;;;21.60;99.90;;;;;;5008790;28;20041;-68
2023/09/18 10:32:07;;;;;;;9.32;6.40;;;21.70;99.90;;;;;;5018940;28;20109;-67
2023/09/18 10:34:34;;;;;;;10.43;6.72;;;21.60;99.90;;;;;;5020623;28;20308;-68
2023/09/18 10:37:05;;;;;;;10.23;7.10;;;21.80;99.90;;;;;;5029115;28;20614;-67
2023/09/18 10:39:33;;;;;;;9.57;6.43;;;21.90;99.90;;;;;;5024341;28;20157;-68
2023/09/18 10:42:02;;;;;;;6.35;5.53;;;22.00;99.90;;;;;;5004490;28;20049;-67
2023/09/18 10:44:28;;;;;;;8.27;5.88;;;22.00;99.90;;;;;;5018148;28;20400;-68
2023/09/18 10:46:55;;;;;;;9.05;5.97;;;22.10;99.90;;;;;;4992992;28;20037;-66
2023/09/18 10:49:21;;;;;;;8.13;5.68;;;22.10;99.90;;;;;;5011201;28;20041;-67
2023/09/18 10:51:48;;;;;;;7.70;5.50;;;22.30;99.90;;;;;;5027802;28;20033;-66
2023/09/18 10:54:21;;;;;;;8.43;5.28;;;22.40;99.90;;;;;;5023749;28;20025;-67
2023/09/18 10:56:47;;;;;;;7.68;5.28;;;22.30;99.90;;;;;;5031916;28;20103;-66
2023/09/18 10:59:14;;;;;;;6.50;5.03;;;22.20;99.90;;;;;;5016321;28;20033;-66
2023/09/18 11:01:40;;;;;;;8.25;5.40;;;22.40;99.90;;;;;;5008651;28;20037;-67
2023/09/18 11:04:09;;;;;;;6.40;4.80;;;22.60;99.90;;;;;;5015339;28;20044;-68
2023/09/18 11:06:53;;;;;;;8.18;4.80;;;22.60;99.90;;;;;;5015359;28;20058;-68
2023/09/18 11:09:20;;;;;;;8.05;4.80;;;22.60;99.90;;;;;;5021041;28;20043;-69
2023/09/18 11:11:48;;;;;;;6.57;4.60;;;22.60;99.90;;;;;;5015524;28;20037;-67
2023/09/18 11:14:14;;;;;;;5.45;4.70;;;22.70;99.90;;;;;;5021731;28;20091;-68
2023/09/18 11:16:40;;;;;;;5.50;4.35;;;22.80;99.90;;;;;;5020114;28;20038;-69
2023/09/18 11:19:11;;;;;;;6.05;4.60;;;22.70;99.90;;;;;;5020619;28;20069;-68
2023/09/18 11:21:37;;;;;;;5.45;4.18;;;22.60;99.90;;;;;;5031773;28;20038;-68
2023/09/18 11:24:05;;;;;;;5.57;4.43;;;22.30;99.90;;;;;;5028654;28;20111;-67
2023/09/18 11:26:36;;;;;;;6.07;4.03;;;22.30;99.90;;;;;;5029089;28;20041;-67
2023/09/18 11:29:05;;;;;;;6.32;4.38;;;22.20;99.90;;;;;;5031026;28;20103;-67
2023/09/18 11:31:51;;;;;;;6.40;4.40;;;22.10;99.90;;;;;;5025340;28;20049;-69
2023/09/18 11:34:22;;;;;;;9.25;3.80;;;22.10;99.90;;;;;;5002130;28;20044;-68
2023/09/18 11:36:48;;;;;;;6.28;3.85;;;22.10;99.90;;;;;;5008037;28;20507;-67
2023/09/18 11:39:37;;;;;;;5.25;3.60;;;22.10;99.90;;;;;;5031426;28;20037;-67
2023/09/18 11:42:10;;;;;;;5.18;3.83;;;22.10;99.90;;;;;;5019142;28;20092;-67
2023/09/18 11:44:45;;;;;;;6.68;3.63;;;22.20;99.90;;;;;;5019757;28;20044;-67
2023/09/18 11:47:16;;;;;;;5.80;3.40;;;22.40;99.90;;;;;;5028959;28;20080;-68
2023/09/18 11:49:50;;;;;;;4.20;3.25;;;22.30;99.90;;;;;;5026634;28;20504;-69
2023/09/18 11:52:17;;;;;;;7.13;3.60;;;22.40;99.90;;;;;;5021164;28;20045;-69
2023/09/18 11:54:45;;;;;;;5.38;3.22;;;22.80;99.90;;;;;;5005262;28;20033;-69
2023/09/18 11:57:13;;;;;;;5.28;3.20;;;23.00;99.90;;;;;;5022376;28;20037;-69
2023/09/18 11:59:42;;;;;;;5.82;3.22;;;23.00;99.90;;;;;;5026236;28;20088;-69
2023/09/18 12:02:10;;;;;;;6.20;3.60;;;23.00;99.90;;;;;;5004559;28;20094;-68
2023/09/18 12:04:36;;;;;;;6.85;3.22;;;22.80;99.90;;;;;;5027715;28;20056;-67
2023/09/18 12:07:04;;;;;;;6.07;3.35;;;22.60;99.90;;;;;;5019948;28;20038;-68
2023/09/18 12:09:36;;;;;;;4.88;3.15;;;22.50;99.90;;;;;;5026572;28;20450;-67
2023/09/18 12:12:05;;;;;;;4.55;3.30;;;22.50;99.90;;;;;;5027813;28;20060;-68
2023/09/18 12:14:32;;;;;;;5.03;3.40;;;22.60;99.90;;;;;;5013620;28;20041;-68
2023/09/18 12:16:59;;;;;;;6.03;3.20;;;22.90;99.90;;;;;;4996497;28;20595;-67
2023/09/18 12:19:25;;;;;;;7.32;3.28;;;22.90;99.90;;;;;;5020558;28;20041;-69
2023/09/18 12:21:51;;;;;;;4.50;3.20;;;22.70;99.90;;;;;;5017417;28;20114;-67
2023/09/18 12:24:34;;;;;;;7.20;3.33;;;22.50;99.90;;;;;;5030074;28;20183;-67
2023/09/18 12:27:00;;;;;;;6.32;3.58;;;22.30;99.90;;;;;;5004404;28;20041;-68
2023/09/18 12:29:26;;;;;;;7.38;3.42;;;22.30;99.90;;;;;;5022963;28;20041;-68
2023/09/18 12:31:52;;;;;;;6.60;3.33;;;22.20;99.90;;;;;;5024870;28;20060;-68